sensor_id;sensor_type;location;lat;lon;timestamp;pressure;altitude;pressure_sealevel;temperature;humidity
5484;BME280;2764;48.794;8.326;2022-08-20T00:00:34;99819.44;;;21.51;84.41
5484;BME280;2764;48.794;8.326;2022-08-20T00:01:37;99837.72;;;21.65;84.13
5484;BME280;2764;48.794;8.326;2022-08-20T00:02:47;99832.25;;;21.66;84.22
5484;BME280;2764;48.794;8.326;2022-08-20T00:03:49;99834.66;;;21.69;83.78
5484;BME280;2764;48.794;8.326;2022-08-20T00:04:53;99835.25;;;21.73;83.78
5484;BME280;2764;48.794;8.326;2022-08-20T00:06:17;99836.91;;;21.74;83.76
5484;BME280;2764;48.794;8.326;2022-08-20T00:07:19;99835.94;;;21.75;83.31
5484;BME280;2764;48.794;8.326;2022-08-20T00:08:21;99830.47;;;21.77;83.13
5484;BME280;2764;48.794;8.326;2022-08-20T00:09:22;99841.28;;;21.75;83.15
5484;BME280;2764;48.794;8.326;2022-08-20T00:10:25;99832.59;;;21.73;84.07
5484;BME280;2764;48.794;8.326;2022-08-20T00:11:27;99842.13;;;21.76;84.52
5484;BME280;2764;48.794;8.326;2022-08-20T00:12:29;99830.19;;;21.70;83.76
5484;BME280;2764;48.794;8.326;2022-08-20T00:13:40;99836.91;;;21.74;83.73
5484;BME280;2764;48.794;8.326;2022-08-20T00:14:42;99839.56;;;21.74;83.75
5484;BME280;2764;48.794;8.326;2022-08-20T00:15:44;99829.91;;;21.73;84.50
5484;BME280;2764;48.794;8.326;2022-08-20T00:16:46;99842.22;;;21.74;84.98
5484;BME280;2764;48.794;8.326;2022-08-20T00:17:49;99843.50;;;21.70;84.11
5484;BME280;2764;48.794;8.326;2022-08-20T00:18:51;99845.03;;;21.73;83.99
5484;BME280;2764;48.794;8.326;2022-08-20T00:19:53;99837.91;;;21.73;83.62
5484;BME280;2764;48.794;8.326;2022-08-20T00:20:56;99838.59;;;21.75;84.38
5484;BME280;2764;48.794;8.326;2022-08-20T00:21:58;99843.09;;;21.75;85.28
5484;BME280;2764;48.794;8.326;2022-08-20T00:23:00;99841.38;;;21.74;85.92
5484;BME280;2764;48.794;8.326;2022-08-20T00:24:02;99844.19;;;21.72;84.32
5484;BME280;2764;48.794;8.326;2022-08-20T00:25:05;99845.03;;;21.73;84.53
5484;BME280;2764;48.794;8.326;2022-08-20T00:26:08;99828.06;;;21.64;84.28
5484;BME280;2764;48.794;8.326;2022-08-20T00:27:10;99854.84;;;21.72;84.27
5484;BME280;2764;48.794;8.326;2022-08-20T00:28:12;99839.97;;;21.69;84.17
5484;BME280;2764;48.794;8.326;2022-08-20T00:29:14;99843.22;;;21.73;84.25
5484;BME280;2764;48.794;8.326;2022-08-20T00:30:21;99836.91;;;21.74;84.19
5484;BME280;2764;48.794;8.326;2022-08-20T00:31:23;99841.97;;;21.77;84.51
5484;BME280;2764;48.794;8.326;2022-08-20T00:32:25;99834.31;;;21.84;84.09
5484;BME280;2764;48.794;8.326;2022-08-20T00:33:27;99835.72;;;21.88;83.34
5484;BME280;2764;48.794;8.326;2022-08-20T00:34:28;99839.22;;;21.88;82.95
5484;BME280;2764;48.794;8.326;2022-08-20T00:35:33;99844.28;;;21.91;83.42
5484;BME280;2764;48.794;8.326;2022-08-20T00:36:35;99843.31;;;21.92;83.45
5484;BME280;2764;48.794;8.326;2022-08-20T00:37:37;99839.81;;;21.92;83.47
5484;BME280;2764;48.794;8.326;2022-08-20T00:38:41;99838.28;;;21.89;83.76
5484;BME280;2764;48.794;8.326;2022-08-20T00:39:43;99839.66;;;21.93;84.46
5484;BME280;2764;48.794;8.326;2022-08-20T00:40:49;99854.94;;;21.91;83.92
5484;BME280;2764;48.794;8.326;2022-08-20T00:41:52;99835.88;;;21.86;84.50
5484;BME280;2764;48.794;8.326;2022-08-20T00:42:57;99849.03;;;21.88;84.83
5484;BME280;2764;48.794;8.326;2022-08-20T00:45:03;99837.81;;;21.84;84.42
5484;BME280;2764;48.794;8.326;2022-08-20T00:46:16;99789.34;;;21.60;84.31
5484;BME280;2764;48.794;8.326;2022-08-20T00:47:18;99840.34;;;21.86;83.64
5484;BME280;2764;48.794;8.326;2022-08-20T00:48:25;99839.50;;;21.85;84.39
5484;BME280;2764;48.794;8.326;2022-08-20T00:49:29;99843.22;;;21.83;85.05
5484;BME280;2764;48.794;8.326;2022-08-20T00:50:35;99846.91;;;21.82;84.55
5484;BME280;2764;48.794;8.326;2022-08-20T00:51:43;99853.06;;;21.82;84.66
5484;BME280;2764;48.794;8.326;2022-08-20T00:52:48;99847.84;;;21.81;85.62
5484;BME280;2764;48.794;8.326;2022-08-20T00:53:52;99842.69;;;21.79;85.89
5484;BME280;2764;48.794;8.326;2022-08-20T00:54:56;99848.97;;;21.78;85.80
5484;BME280;2764;48.794;8.326;2022-08-20T00:55:59;99845.59;;;21.76;86.04
5484;BME280;2764;48.794;8.326;2022-08-20T00:57:10;99842.22;;;21.74;84.14
5484;BME280;2764;48.794;8.326;2022-08-20T00:58:13;99799.22;;;21.39;84.22
5484;BME280;2764;48.794;8.326;2022-08-20T00:59:19;99846.03;;;21.81;84.05
5484;BME280;2764;48.794;8.326;2022-08-20T01:00:34;99840.56;;;21.83;84.39
5484;BME280;2764;48.794;8.326;2022-08-20T01:01:39;99849.19;;;21.86;83.90
5484;BME280;2764;48.794;8.326;2022-08-20T01:02:56;99853.50;;;21.87;84.16
5484;BME280;2764;48.794;8.326;2022-08-20T01:03:59;99852.56;;;21.88;84.34
5484;BME280;2764;48.794;8.326;2022-08-20T01:05:00;99841.34;;;21.85;84.86
5484;BME280;2764;48.794;8.326;2022-08-20T01:06:03;99854.50;;;21.86;84.42
5484;BME280;2764;48.794;8.326;2022-08-20T01:07:06;99861.78;;;21.84;84.69
5484;BME280;2764;48.794;8.326;2022-08-20T01:08:07;99862.72;;;21.83;84.84
5484;BME280;2764;48.794;8.326;2022-08-20T01:09:09;99854.88;;;21.82;85.06
5484;BME280;2764;48.794;8.326;2022-08-20T01:10:15;99858.66;;;21.79;85.16
5484;BME280;2764;48.794;8.326;2022-08-20T01:11:19;99859.63;;;21.78;85.28
5484;BME280;2764;48.794;8.326;2022-08-20T01:12:27;99855.03;;;21.80;85.67
5484;BME280;2764;48.794;8.326;2022-08-20T01:13:29;99859.34;;;21.81;85.52
5484;BME280;2764;48.794;8.326;2022-08-20T01:14:32;99856.69;;;21.81;85.31
5484;BME280;2764;48.794;8.326;2022-08-20T01:15:36;99862.72;;;21.83;85.26
5484;BME280;2764;48.794;8.326;2022-08-20T01:16:45;99858.41;;;21.82;85.19
5484;BME280;2764;48.794;8.326;2022-08-20T01:17:52;99859.34;;;21.81;85.69
5484;BME280;2764;48.794;8.326;2022-08-20T01:18:56;99854.19;;;21.80;85.40
5484;BME280;2764;48.794;8.326;2022-08-20T01:20:10;99849.97;;;21.77;85.64
5484;BME280;2764;48.794;8.326;2022-08-20T01:21:13;99858.50;;;21.81;85.27
5484;BME280;2764;48.794;8.326;2022-08-20T01:22:20;99859.22;;;21.83;85.13
5484;BME280;2764;48.794;8.326;2022-08-20T01:23:54;99866.38;;;21.82;86.31
5484;BME280;2764;48.794;8.326;2022-08-20T01:25:04;99868.19;;;21.82;86.37
5484;BME280;2764;48.794;8.326;2022-08-20T01:27:09;99815.53;;;21.55;86.05
5484;BME280;2764;48.794;8.326;2022-08-20T01:28:12;99856.69;;;21.81;86.08
5484;BME280;2764;48.794;8.326;2022-08-20T01:29:19;99859.63;;;21.78;86.37
5484;BME280;2764;48.794;8.326;2022-08-20T01:30:25;99858.91;;;21.76;86.12
5484;BME280;2764;48.794;8.326;2022-08-20T01:31:30;99852.88;;;21.74;85.68
5484;BME280;2764;48.794;8.326;2022-08-20T01:32:32;99858.34;;;21.73;85.42
5484;BME280;2764;48.794;8.326;2022-08-20T01:33:35;99851.31;;;21.72;85.43
5484;BME280;2764;48.794;8.326;2022-08-20T01:34:36;99860.03;;;21.74;85.37
5484;BME280;2764;48.794;8.326;2022-08-20T01:35:40;99865.22;;;21.75;85.54
5484;BME280;2764;48.794;8.326;2022-08-20T01:36:46;99865.09;;;21.77;85.26
5484;BME280;2764;48.794;8.326;2022-08-20T01:37:48;99864.94;;;21.78;85.74
5484;BME280;2764;48.794;8.326;2022-08-20T01:38:50;99865.94;;;21.77;85.48
5484;BME280;2764;48.794;8.326;2022-08-20T01:39:55;99863.28;;;21.77;85.36
5484;BME280;2764;48.794;8.326;2022-08-20T01:42:34;99862.16;;;21.80;85.08
5484;BME280;2764;48.794;8.326;2022-08-20T01:43:57;99866.13;;;21.85;85.61
5484;BME280;2764;48.794;8.326;2022-08-20T01:45:00;99878.47;;;21.86;85.82
5484;BME280;2764;48.794;8.326;2022-08-20T01:46:04;99871.44;;;21.85;85.47
5484;BME280;2764;48.794;8.326;2022-08-20T01:47:17;99876.66;;;21.87;85.42
5484;BME280;2764;48.794;8.326;2022-08-20T01:48:21;99874.97;;;21.86;85.10
5484;BME280;2764;48.794;8.326;2022-08-20T01:49:29;99871.34;;;21.87;85.28
5484;BME280;2764;48.794;8.326;2022-08-20T01:50:32;99858.09;;;21.76;84.91
5484;BME280;2764;48.794;8.326;2022-08-20T01:51:35;99877.63;;;21.86;85.60
5484;BME280;2764;48.794;8.326;2022-08-20T01:53:46;99875.34;;;21.81;85.59
5484;BME280;2764;48.794;8.326;2022-08-20T01:54:47;99876.03;;;21.83;85.61
5484;BME280;2764;48.794;8.326;2022-08-20T01:55:49;99878.00;;;21.81;85.26
5484;BME280;2764;48.794;8.326;2022-08-20T01:56:59;99869.31;;;21.79;85.55
5484;BME280;2764;48.794;8.326;2022-08-20T01:58:05;99879.97;;;21.79;85.69
5484;BME280;2764;48.794;8.326;2022-08-20T01:59:09;99879.81;;;21.81;85.30
5484;BME280;2764;48.794;8.326;2022-08-20T02:00:40;99884.31;;;21.80;85.64
5484;BME280;2764;48.794;8.326;2022-08-20T02:01:52;99885.03;;;21.82;85.50
5484;BME280;2764;48.794;8.326;2022-08-20T02:02:54;99881.50;;;21.82;85.71
5484;BME280;2764;48.794;8.326;2022-08-20T02:03:56;99883.09;;;21.84;86.04
5484;BME280;2764;48.794;8.326;2022-08-20T02:04:58;99885.63;;;21.86;86.04
5484;BME280;2764;48.794;8.326;2022-08-20T02:06:01;99880.44;;;21.84;85.85
5484;BME280;2764;48.794;8.326;2022-08-20T02:07:05;99871.81;;;21.81;85.15
5484;BME280;2764;48.794;8.326;2022-08-20T02:08:07;99882.94;;;21.86;84.88
5484;BME280;2764;48.794;8.326;2022-08-20T02:09:10;99881.28;;;21.85;84.71
5484;BME280;2764;48.794;8.326;2022-08-20T02:10:17;99877.38;;;21.89;84.56
5484;BME280;2764;48.794;8.326;2022-08-20T02:11:19;99894.91;;;21.91;85.05
5484;BME280;2764;48.794;8.326;2022-08-20T02:12:21;99890.41;;;21.92;85.15
5484;BME280;2764;48.794;8.326;2022-08-20T02:13:22;99886.91;;;21.91;84.99
5484;BME280;2764;48.794;8.326;2022-08-20T02:14:26;99888.72;;;21.91;84.82
5484;BME280;2764;48.794;8.326;2022-08-20T02:15:27;99923.34;;;21.91;84.78
5484;BME280;2764;48.794;8.326;2022-08-20T02:16:41;99897.56;;;21.91;84.91
5484;BME280;2764;48.794;8.326;2022-08-20T02:17:43;99899.53;;;21.89;84.82
5484;BME280;2764;48.794;8.326;2022-08-20T02:18:46;99890.53;;;21.90;84.66
5484;BME280;2764;48.794;8.326;2022-08-20T02:19:53;99890.53;;;21.90;85.39
5484;BME280;2764;48.794;8.326;2022-08-20T02:20:56;99892.22;;;21.91;84.67
5484;BME280;2764;48.794;8.326;2022-08-20T02:21:59;99891.38;;;21.91;84.84
5484;BME280;2764;48.794;8.326;2022-08-20T02:23:04;99884.94;;;21.93;84.83
5484;BME280;2764;48.794;8.326;2022-08-20T02:24:06;99885.22;;;21.90;85.16
5484;BME280;2764;48.794;8.326;2022-08-20T02:25:10;99870.16;;;21.80;84.92
5484;BME280;2764;48.794;8.326;2022-08-20T02:26:12;99882.94;;;21.86;85.23
5484;BME280;2764;48.794;8.326;2022-08-20T02:27:14;99886.47;;;21.86;85.17
5484;BME280;2764;48.794;8.326;2022-08-20T02:28:17;99881.84;;;21.88;85.60
5484;BME280;2764;48.794;8.326;2022-08-20T02:29:20;99876.78;;;21.85;84.86
5484;BME280;2764;48.794;8.326;2022-08-20T02:30:35;99839.22;;;21.58;84.86
5484;BME280;2764;48.794;8.326;2022-08-20T02:31:38;99878.47;;;21.86;85.29
5484;BME280;2764;48.794;8.326;2022-08-20T02:33:02;99879.69;;;21.82;85.98
5484;BME280;2764;48.794;8.326;2022-08-20T02:34:07;99886.84;;;21.82;84.93
5484;BME280;2764;48.794;8.326;2022-08-20T02:35:24;99883.59;;;21.78;84.92
5484;BME280;2764;48.794;8.326;2022-08-20T02:36:26;99890.59;;;21.79;85.00
5484;BME280;2764;48.794;8.326;2022-08-20T02:37:28;99883.88;;;21.75;85.19
5484;BME280;2764;48.794;8.326;2022-08-20T02:38:29;99885.44;;;21.78;86.54
5484;BME280;2764;48.794;8.326;2022-08-20T02:39:32;99888.75;;;21.70;86.11
5484;BME280;2764;48.794;8.326;2022-08-20T02:40:34;99884.38;;;21.69;86.61
5484;BME280;2764;48.794;8.326;2022-08-20T02:41:36;99882.72;;;21.68;86.69
5484;BME280;2764;48.794;8.326;2022-08-20T02:42:38;99884.66;;;21.66;87.04
5484;BME280;2764;48.794;8.326;2022-08-20T02:43:42;99868.06;;;21.53;88.41
5484;BME280;2764;48.794;8.326;2022-08-20T02:44:44;99874.53;;;21.60;88.60
5484;BME280;2764;48.794;8.326;2022-08-20T02:45:45;99876.38;;;21.59;88.18
5484;BME280;2764;48.794;8.326;2022-08-20T02:46:48;99873.13;;;21.56;87.91
5484;BME280;2764;48.794;8.326;2022-08-20T02:47:51;99864.53;;;21.43;89.01
5484;BME280;2764;48.794;8.326;2022-08-20T02:48:54;99881.91;;;21.47;88.66
5484;BME280;2764;48.794;8.326;2022-08-20T02:49:56;99880.59;;;21.41;88.39
5484;BME280;2764;48.794;8.326;2022-08-20T02:51:03;99886.91;;;21.40;88.38
5484;BME280;2764;48.794;8.326;2022-08-20T02:52:05;99877.38;;;21.38;88.13
5484;BME280;2764;48.794;8.326;2022-08-20T02:53:07;99880.19;;;21.36;88.60
5484;BME280;2764;48.794;8.326;2022-08-20T02:54:09;99878.47;;;21.35;89.12
5484;BME280;2764;48.794;8.326;2022-08-20T02:55:12;99882.94;;;21.35;89.31
5484;BME280;2764;48.794;8.326;2022-08-20T02:56:27;99880.44;;;21.33;88.92
5484;BME280;2764;48.794;8.326;2022-08-20T02:57:29;99877.06;;;21.31;88.87
5484;BME280;2764;48.794;8.326;2022-08-20T02:58:31;99873.56;;;21.31;89.67
5484;BME280;2764;48.794;8.326;2022-08-20T02:59:33;99869.19;;;21.30;90.26
5484;BME280;2764;48.794;8.326;2022-08-20T03:00:34;99857.66;;;21.20;90.47
5484;BME280;2764;48.794;8.326;2022-08-20T03:01:39;99873.81;;;21.28;90.27
5484;BME280;2764;48.794;8.326;2022-08-20T03:02:40;99872.84;;;21.29;90.42
5484;BME280;2764;48.794;8.326;2022-08-20T03:03:43;99896.94;;;21.27;91.30
5484;BME280;2764;48.794;8.326;2022-08-20T03:04:45;99879.41;;;21.25;90.85
5484;BME280;2764;48.794;8.326;2022-08-20T03:05:49;99876.75;;;21.25;90.45
5484;BME280;2764;48.794;8.326;2022-08-20T03:06:51;99876.75;;;21.25;89.01
5484;BME280;2764;48.794;8.326;2022-08-20T03:07:53;99871.53;;;21.23;88.85
5484;BME280;2764;48.794;8.326;2022-08-20T03:08:56;99861.72;;;21.03;88.97
5484;BME280;2764;48.794;8.326;2022-08-20T03:09:58;99871.16;;;21.28;89.53
5484;BME280;2764;48.794;8.326;2022-08-20T03:11:01;99875.50;;;21.29;89.28
5484;BME280;2764;48.794;8.326;2022-08-20T03:12:04;99874.41;;;21.31;89.27
5484;BME280;2764;48.794;8.326;2022-08-20T03:13:07;99862.47;;;21.26;89.34
5484;BME280;2764;48.794;8.326;2022-08-20T03:14:12;99878.47;;;21.35;88.88
5484;BME280;2764;48.794;8.326;2022-08-20T03:15:14;99870.66;;;21.34;89.15
5484;BME280;2764;48.794;8.326;2022-08-20T03:16:18;99872.31;;;21.35;89.04
5484;BME280;2764;48.794;8.326;2022-08-20T03:17:20;99877.63;;;21.35;89.36
5484;BME280;2764;48.794;8.326;2022-08-20T03:18:24;99870.75;;;21.32;88.62
5484;BME280;2764;48.794;8.326;2022-08-20T03:19:26;99868.38;;;21.29;88.66
5484;BME280;2764;48.794;8.326;2022-08-20T03:20:28;99856.28;;;21.25;88.78
5484;BME280;2764;48.794;8.326;2022-08-20T03:21:30;99865.56;;;21.31;89.02
5484;BME280;2764;48.794;8.326;2022-08-20T03:22:33;99868.94;;;21.33;89.11
5484;BME280;2764;48.794;8.326;2022-08-20T03:23:35;99868.94;;;21.33;90.24
5484;BME280;2764;48.794;8.326;2022-08-20T03:24:40;99862.91;;;21.31;89.99
5484;BME280;2764;48.794;8.326;2022-08-20T03:25:42;99859.41;;;21.30;90.10
5484;BME280;2764;48.794;8.326;2022-08-20T03:26:44;99866.53;;;21.30;90.29
5484;BME280;2764;48.794;8.326;2022-08-20T03:27:46;99868.47;;;21.28;90.91
5484;BME280;2764;48.794;8.326;2022-08-20T03:28:54;99861.50;;;21.27;90.17
5484;BME280;2764;48.794;8.326;2022-08-20T03:29:56;99859.09;;;21.24;89.79
5484;BME280;2764;48.794;8.326;2022-08-20T03:30:58;99865.81;;;21.28;89.40
5484;BME280;2764;48.794;8.326;2022-08-20T03:31:59;99857.13;;;21.26;89.79
5484;BME280;2764;48.794;8.326;2022-08-20T03:33:07;99857.53;;;21.21;89.89
5484;BME280;2764;48.794;8.326;2022-08-20T03:34:09;99863.69;;;21.22;90.24
5484;BME280;2764;48.794;8.326;2022-08-20T03:35:14;99872.25;;;21.25;90.23
5484;BME280;2764;48.794;8.326;2022-08-20T03:36:16;99862.47;;;21.26;89.58
5484;BME280;2764;48.794;8.326;2022-08-20T03:37:30;99862.47;;;21.26;90.25
5484;BME280;2764;48.794;8.326;2022-08-20T03:38:33;99868.94;;;21.33;90.15
5484;BME280;2764;48.794;8.326;2022-08-20T03:39:35;99866.53;;;21.30;91.50
5484;BME280;2764;48.794;8.326;2022-08-20T03:40:37;99868.38;;;21.29;91.21
5484;BME280;2764;48.794;8.326;2022-08-20T03:41:39;99869.09;;;21.31;90.83
5484;BME280;2764;48.794;8.326;2022-08-20T03:42:41;99868.38;;;21.29;90.46
5484;BME280;2764;48.794;8.326;2022-08-20T03:43:43;99859.09;;;21.24;90.18
5484;BME280;2764;48.794;8.326;2022-08-20T03:44:45;99874.81;;;21.27;90.18
5484;BME280;2764;48.794;8.326;2022-08-20T03:45:59;99906.72;;;21.27;90.53
5484;BME280;2764;48.794;8.326;2022-08-20T03:47:03;99869.09;;;21.31;91.21
5484;BME280;2764;48.794;8.326;2022-08-20T03:48:15;99870.91;;;21.31;91.23
5484;BME280;2764;48.794;8.326;2022-08-20T03:49:17;99848.31;;;21.05;91.45
5484;BME280;2764;48.794;8.326;2022-08-20T03:50:25;99872.31;;;21.35;91.42
5484;BME280;2764;48.794;8.326;2022-08-20T03:51:28;99876.78;;;21.34;91.50
5484;BME280;2764;48.794;8.326;2022-08-20T03:52:54;99870.19;;;21.29;92.56
5484;BME280;2764;48.794;8.326;2022-08-20T03:53:57;99894.38;;;21.26;93.77
5484;BME280;2764;48.794;8.326;2022-08-20T03:54:59;99877.56;;;21.25;93.80
5484;BME280;2764;48.794;8.326;2022-08-20T03:56:04;99873.09;;;21.26;93.83
5484;BME280;2764;48.794;8.326;2022-08-20T03:57:11;99875.06;;;21.24;93.84
5484;BME280;2764;48.794;8.326;2022-08-20T03:58:14;99870.84;;;21.21;94.86
5484;BME280;2764;48.794;8.326;2022-08-20T03:59:17;99873.88;;;21.17;94.88
5484;BME280;2764;48.794;8.326;2022-08-20T04:00:22;99877.53;;;21.16;95.26
5484;BME280;2764;48.794;8.326;2022-08-20T04:01:24;99883.09;;;21.13;95.29
5484;BME280;2764;48.794;8.326;2022-08-20T04:02:46;99877.94;;;21.11;95.66
5484;BME280;2764;48.794;8.326;2022-08-20T04:03:47;99879.03;;;21.09;96.28
5484;BME280;2764;48.794;8.326;2022-08-20T04:04:55;99875.75;;;21.05;95.93
5484;BME280;2764;48.794;8.326;2022-08-20T04:05:57;99881.09;;;21.05;96.42
5484;BME280;2764;48.794;8.326;2022-08-20T04:06:59;99881.19;;;21.04;96.17
5484;BME280;2764;48.794;8.326;2022-08-20T04:08:01;99877.81;;;21.02;96.36
5484;BME280;2764;48.794;8.326;2022-08-20T04:09:03;99897.03;;;21.05;96.19
5484;BME280;2764;48.794;8.326;2022-08-20T04:10:08;99866.47;;;20.99;96.53
5484;BME280;2764;48.794;8.326;2022-08-20T04:11:11;99870.56;;;21.04;96.14
5484;BME280;2764;48.794;8.326;2022-08-20T04:12:13;99883.00;;;21.03;96.37
5484;BME280;2764;48.794;8.326;2022-08-20T04:13:17;99875.81;;;20.94;97.88
5484;BME280;2764;48.794;8.326;2022-08-20T04:14:21;99872.03;;;20.96;97.94
5484;BME280;2764;48.794;8.326;2022-08-20T04:15:23;99872.28;;;20.93;97.30
5484;BME280;2764;48.794;8.326;2022-08-20T04:16:24;99884.03;;;20.91;97.51
5484;BME280;2764;48.794;8.326;2022-08-20T04:17:27;99873.38;;;20.91;97.06
5484;BME280;2764;48.794;8.326;2022-08-20T04:18:29;99868.34;;;20.88;97.73
5484;BME280;2764;48.794;8.326;2022-08-20T04:19:31;99877.84;;;20.90;97.40
5484;BME280;2764;48.794;8.326;2022-08-20T04:20:36;99881.50;;;20.89;96.54
5484;BME280;2764;48.794;8.326;2022-08-20T04:21:39;99873.53;;;20.89;96.50
5484;BME280;2764;48.794;8.326;2022-08-20T04:22:40;99880.41;;;20.92;96.73
5484;BME280;2764;48.794;8.326;2022-08-20T04:23:57;99864.00;;;20.87;97.07
5484;BME280;2764;48.794;8.326;2022-08-20T04:24:58;99873.28;;;20.92;96.97
5484;BME280;2764;48.794;8.326;2022-08-20T04:26:00;99874.00;;;20.94;97.04
5484;BME280;2764;48.794;8.326;2022-08-20T04:27:02;99891.03;;;20.92;98.03
5484;BME280;2764;48.794;8.326;2022-08-20T04:28:07;99871.81;;;20.88;97.84
5484;BME280;2764;48.794;8.326;2022-08-20T04:29:12;99876.06;;;20.91;98.44
5484;BME280;2764;48.794;8.326;2022-08-20T04:30:16;99870.03;;;20.89;98.15
5484;BME280;2764;48.794;8.326;2022-08-20T04:31:18;99874.09;;;20.93;97.43
5484;BME280;2764;48.794;8.326;2022-08-20T04:32:25;99869.16;;;20.88;97.35
5484;BME280;2764;48.794;8.326;2022-08-20T04:33:28;99881.84;;;20.96;97.35
5484;BME280;2764;48.794;8.326;2022-08-20T04:34:35;99880.16;;;20.95;98.10
5484;BME280;2764;48.794;8.326;2022-08-20T04:35:37;99885.47;;;20.95;97.57
5484;BME280;2764;48.794;8.326;2022-08-20T04:36:39;99883.53;;;20.97;97.66
5484;BME280;2764;48.794;8.326;2022-08-20T04:37:41;99882.69;;;20.96;97.30
5484;BME280;2764;48.794;8.326;2022-08-20T04:38:43;99888.72;;;20.98;96.00
5484;BME280;2764;48.794;8.326;2022-08-20T04:39:53;99891.38;;;20.98;95.91
5484;BME280;2764;48.794;8.326;2022-08-20T04:41:14;99888.72;;;20.98;93.95
5484;BME280;2764;48.794;8.326;2022-08-20T04:42:24;99891.94;;;21.02;93.88
5484;BME280;2764;48.794;8.326;2022-08-20T04:43:34;99895.38;;;21.04;93.80
5484;BME280;2764;48.794;8.326;2022-08-20T04:44:36;99894.50;;;21.04;93.84
5484;BME280;2764;48.794;8.326;2022-08-20T04:45:37;99893.53;;;21.05;93.61
5484;BME280;2764;48.794;8.326;2022-08-20T04:46:41;99895.22;;;21.06;94.12
5484;BME280;2764;48.794;8.326;2022-08-20T04:47:43;99896.91;;;21.07;94.16
5484;BME280;2764;48.794;8.326;2022-08-20T04:48:46;99894.00;;;21.10;94.25
5484;BME280;2764;48.794;8.326;2022-08-20T04:49:50;99902.44;;;21.15;93.12
5484;BME280;2764;48.794;8.326;2022-08-20T04:50:58;99901.59;;;21.14;92.74
5484;BME280;2764;48.794;8.326;2022-08-20T04:52:01;99901.91;;;21.21;92.78
5484;BME280;2764;48.794;8.326;2022-08-20T04:53:05;99893.81;;;21.22;92.62
5484;BME280;2764;48.794;8.326;2022-08-20T04:54:07;99903.59;;;21.22;92.57
5484;BME280;2764;48.794;8.326;2022-08-20T04:55:10;99900.94;;;21.22;92.54
5484;BME280;2764;48.794;8.326;2022-08-20T04:56:11;99900.22;;;21.20;91.92
5484;BME280;2764;48.794;8.326;2022-08-20T04:57:13;99891.53;;;21.18;91.27
5484;BME280;2764;48.794;8.326;2022-08-20T04:58:23;99893.09;;;21.20;91.67
5484;BME280;2764;48.794;8.326;2022-08-20T04:59:27;99893.94;;;21.21;91.58
5484;BME280;2764;48.794;8.326;2022-08-20T05:00:29;99887.78;;;21.20;91.54
5484;BME280;2764;48.794;8.326;2022-08-20T05:01:32;99888.34;;;21.24;91.97
5484;BME280;2764;48.794;8.326;2022-08-20T05:02:33;99853.19;;;20.99;90.97
5484;BME280;2764;48.794;8.326;2022-08-20T05:03:37;99876.09;;;21.12;90.91
5484;BME280;2764;48.794;8.326;2022-08-20T05:04:39;99879.91;;;21.19;90.73
5484;BME280;2764;48.794;8.326;2022-08-20T05:05:42;99879.22;;;21.17;92.10
5484;BME280;2764;48.794;8.326;2022-08-20T05:06:45;99887.31;;;21.15;91.84
5484;BME280;2764;48.794;8.326;2022-08-20T05:07:49;99906.84;;;21.25;91.94
5484;BME280;2764;48.794;8.326;2022-08-20T05:08:52;99871.44;;;21.04;91.42
5484;BME280;2764;48.794;8.326;2022-08-20T05:09:54;99895.47;;;21.23;92.61
5484;BME280;2764;48.794;8.326;2022-08-20T05:10:56;99895.03;;;21.18;91.73
5484;BME280;2764;48.794;8.326;2022-08-20T05:12:18;99894.31;;;21.16;91.01
5484;BME280;2764;48.794;8.326;2022-08-20T05:13:20;99884.47;;;21.07;91.12
5484;BME280;2764;48.794;8.326;2022-08-20T05:14:27;99914.00;;;21.25;91.44
5484;BME280;2764;48.794;8.326;2022-08-20T05:15:30;99891.78;;;21.15;93.02
5484;BME280;2764;48.794;8.326;2022-08-20T05:16:31;99905.56;;;21.20;92.56
5484;BME280;2764;48.794;8.326;2022-08-20T05:17:39;99889.00;;;21.16;92.05
5484;BME280;2764;48.794;8.326;2022-08-20T05:18:41;99912.53;;;21.21;92.02
5484;BME280;2764;48.794;8.326;2022-08-20T05:19:43;99900.34;;;21.18;92.19
5484;BME280;2764;48.794;8.326;2022-08-20T05:20:47;99911.19;;;21.26;92.46
5484;BME280;2764;48.794;8.326;2022-08-20T05:21:49;99885.22;;;21.19;92.06
5484;BME280;2764;48.794;8.326;2022-08-20T05:22:54;99912.38;;;21.33;92.29
5484;BME280;2764;48.794;8.326;2022-08-20T05:23:56;99913.47;;;21.31;93.20
5484;BME280;2764;48.794;8.326;2022-08-20T05:24:57;99897.19;;;21.24;92.61
5484;BME280;2764;48.794;8.326;2022-08-20T05:26:02;99913.91;;;21.36;92.66
5484;BME280;2764;48.794;8.326;2022-08-20T05:27:07;99905.03;;;21.26;90.84
5484;BME280;2764;48.794;8.326;2022-08-20T05:28:23;99913.00;;;21.26;90.72
5484;BME280;2764;48.794;8.326;2022-08-20T05:29:25;99922.41;;;21.30;90.96
5484;BME280;2764;48.794;8.326;2022-08-20T05:30:27;99911.91;;;21.28;91.30
5484;BME280;2764;48.794;8.326;2022-08-20T05:31:34;99911.13;;;21.17;90.83
5484;BME280;2764;48.794;8.326;2022-08-20T05:32:37;99919.31;;;21.25;91.01
5484;BME280;2764;48.794;8.326;2022-08-20T05:33:45;99902.19;;;21.18;90.72
5484;BME280;2764;48.794;8.326;2022-08-20T05:34:46;99895.16;;;21.17;90.82
5484;BME280;2764;48.794;8.326;2022-08-20T05:35:50;99919.34;;;21.34;91.18
5484;BME280;2764;48.794;8.326;2022-08-20T05:36:53;99912.94;;;21.37;91.30
5484;BME280;2764;48.794;8.326;2022-08-20T05:37:55;99909.09;;;21.30;91.38
5484;BME280;2764;48.794;8.326;2022-08-20T05:38:58;99922.16;;;21.33;91.48
5484;BME280;2764;48.794;8.326;2022-08-20T05:39:59;99911.91;;;21.28;91.43
5484;BME280;2764;48.794;8.326;2022-08-20T05:41:04;99924.56;;;21.36;92.48
5484;BME280;2764;48.794;8.326;2022-08-20T05:42:06;99914.56;;;21.28;92.03
5484;BME280;2764;48.794;8.326;2022-08-20T05:43:08;99923.53;;;21.27;92.88
5484;BME280;2764;48.794;8.326;2022-08-20T05:44:10;99924.50;;;21.26;92.86
5484;BME280;2764;48.794;8.326;2022-08-20T05:45:15;99901.72;;;21.13;92.12
5484;BME280;2764;48.794;8.326;2022-08-20T05:46:17;99921.63;;;21.18;91.79
5484;BME280;2764;48.794;8.326;2022-08-20T05:47:19;99877.59;;;20.93;91.42
5484;BME280;2764;48.794;8.326;2022-08-20T05:48:24;99922.88;;;21.14;91.51
5484;BME280;2764;48.794;8.326;2022-08-20T05:49:25;99920.41;;;21.22;90.72
5484;BME280;2764;48.794;8.326;2022-08-20T05:50:27;99911.59;;;21.22;91.11
5484;BME280;2764;48.794;8.326;2022-08-20T05:51:29;99927.63;;;21.31;91.03
5484;BME280;2764;48.794;8.326;2022-08-20T05:52:30;99934.69;;;21.42;91.43
5484;BME280;2764;48.794;8.326;2022-08-20T05:53:32;99922.47;;;21.39;91.33
5484;BME280;2764;48.794;8.326;2022-08-20T05:54:34;99931.63;;;21.46;90.96
5484;BME280;2764;48.794;8.326;2022-08-20T05:55:38;99962.22;;;21.52;90.51